sensor_id;sensor_type;location;lat;lon;timestamp;temperature;humidity
61016;DHT22;46902;52.920;6.536;2022-09-09T00:04:26;15.50;99.90
61016;DHT22;46902;52.920;6.536;2022-09-09T00:07:14;15.50;99.90
61016;DHT22;46902;52.920;6.536;2022-09-09T00:10:09;15.50;99.90
61016;DHT22;46902;52.920;6.536;2022-09-09T00:13:02;15.40;99.90
61016;DHT22;46902;52.920;6.536;2022-09-09T00:15:58;15.40;99.90
61016;DHT22;46902;52.920;6.536;2022-09-09T00:18:40;15.40;99.90
61016;DHT22;46902;52.920;6.536;2022-09-09T00:21:12;15.30;99.90
61016;DHT22;46902;52.920;6.536;2022-09-09T00:23:47;15.30;99.90
61016;DHT22;46902;52.920;6.536;2022-09-09T00:26:40;15.30;99.90
61016;DHT22;46902;52.920;6.536;2022-09-09T00:31:41;15.20;99.90
61016;DHT22;46902;52.920;6.536;2022-09-09T00:34:18;15.10;99.90
61016;DHT22;46902;52.920;6.536;2022-09-09T00:36:45;15.20;99.90
61016;DHT22;46902;52.920;6.536;2022-09-09T00:39:36;15.10;99.90
61016;DHT22;46902;52.920;6.536;2022-09-09T00:44:39;15.10;99.90
61016;DHT22;46902;52.920;6.536;2022-09-09T00:49:56;15.10;99.90
61016;DHT22;46902;52.920;6.536;2022-09-09T00:52:43;15.20;99.90
61016;DHT22;46902;52.920;6.536;2022-09-09T00:57:59;15.20;99.90
61016;DHT22;46902;52.920;6.536;2022-09-09T01:00:29;15.10;99.90
61016;DHT22;46902;52.920;6.536;2022-09-09T01:03:32;15.10;99.90
61016;DHT22;46902;52.920;6.536;2022-09-09T01:09:05;15.10;99.90
61016;DHT22;46902;52.920;6.536;2022-09-09T01:17:19;15.20;99.90
61016;DHT22;46902;52.920;6.536;2022-09-09T01:19:57;15.10;99.90
61016;DHT22;46902;52.920;6.536;2022-09-09T01:23:10;15.10;99.90
61016;DHT22;46902;52.920;6.536;2022-09-09T01:28:28;15.10;99.90
61016;DHT22;46902;52.920;6.536;2022-09-09T01:30:56;15.10;99.90
61016;DHT22;46902;52.920;6.536;2022-09-09T01:33:22;15.10;99.90
61016;DHT22;46902;52.920;6.536;2022-09-09T01:38:34;15.20;99.90
61016;DHT22;46902;52.920;6.536;2022-09-09T01:41:01;15.10;99.90
61016;DHT22;46902;52.920;6.536;2022-09-09T01:43:27;15.10;99.90
61016;DHT22;46902;52.920;6.536;2022-09-09T01:45:59;15.10;99.90
61016;DHT22;46902;52.920;6.536;2022-09-09T01:48:27;15.20;99.90
61016;DHT22;46902;52.920;6.536;2022-09-09T01:50:52;15.10;99.90
61016;DHT22;46902;52.920;6.536;2022-09-09T01:53:19;15.10;99.90
61016;DHT22;46902;52.920;6.536;2022-09-09T01:58:53;15.10;99.90
61016;DHT22;46902;52.920;6.536;2022-09-09T02:03:57;15.10;99.90
61016;DHT22;46902;52.920;6.536;2022-09-09T02:06:38;15.10;99.90
61016;DHT22;46902;52.920;6.536;2022-09-09T02:09:07;15.10;99.90
61016;DHT22;46902;52.920;6.536;2022-09-09T02:11:33;15.20;99.90
61016;DHT22;46902;52.920;6.536;2022-09-09T02:14:19;15.30;99.90
61016;DHT22;46902;52.920;6.536;2022-09-09T02:16:57;15.30;99.90
61016;DHT22;46902;52.920;6.536;2022-09-09T02:19:26;15.30;99.90
61016;DHT22;46902;52.920;6.536;2022-09-09T02:21:55;15.30;99.90
61016;DHT22;46902;52.920;6.536;2022-09-09T02:24:21;15.30;99.90
61016;DHT22;46902;52.920;6.536;2022-09-09T02:26:50;15.40;99.90
61016;DHT22;46902;52.920;6.536;2022-09-09T02:29:41;15.40;99.90
61016;DHT22;46902;52.920;6.536;2022-09-09T02:32:13;15.40;99.90
61016;DHT22;46902;52.920;6.536;2022-09-09T02:34:43;15.40;99.90
61016;DHT22;46902;52.920;6.536;2022-09-09T02:37:11;15.40;99.90
61016;DHT22;46902;52.920;6.536;2022-09-09T02:39:37;15.40;99.90
61016;DHT22;46902;52.920;6.536;2022-09-09T02:42:06;15.40;99.90
61016;DHT22;46902;52.920;6.536;2022-09-09T02:44:33;15.50;99.90
61016;DHT22;46902;52.920;6.536;2022-09-09T02:49:40;15.50;99.90
61016;DHT22;46902;52.920;6.536;2022-09-09T02:52:10;15.50;99.90
61016;DHT22;46902;52.920;6.536;2022-09-09T02:54:41;15.40;99.90
61016;DHT22;46902;52.920;6.536;2022-09-09T02:57:26;15.40;99.90
61016;DHT22;46902;52.920;6.536;2022-09-09T02:59:53;15.50;99.90
61016;DHT22;46902;52.920;6.536;2022-09-09T03:02:22;15.50;99.90
61016;DHT22;46902;52.920;6.536;2022-09-09T03:04:47;15.50;99.90
61016;DHT22;46902;52.920;6.536;2022-09-09T03:07:17;15.50;99.90
61016;DHT22;46902;52.920;6.536;2022-09-09T03:09:43;15.50;99.90
61016;DHT22;46902;52.920;6.536;2022-09-09T03:12:10;15.50;99.90
61016;DHT22;46902;52.920;6.536;2022-09-09T03:14:37;15.50;99.90
61016;DHT22;46902;52.920;6.536;2022-09-09T03:17:04;15.50;99.90
61016;DHT22;46902;52.920;6.536;2022-09-09T03:19:30;15.60;99.90
61016;DHT22;46902;52.920;6.536;2022-09-09T03:21:56;15.50;99.90
61016;DHT22;46902;52.920;6.536;2022-09-09T03:24:22;15.50;99.90
61016;DHT22;46902;52.920;6.536;2022-09-09T03:26:48;15.60;99.90
61016;DHT22;46902;52.920;6.536;2022-09-09T03:29:14;15.60;99.90
61016;DHT22;46902;52.920;6.536;2022-09-09T03:31:40;15.60;99.90
61016;DHT22;46902;52.920;6.536;2022-09-09T03:34:06;15.60;99.90
61016;DHT22;46902;52.920;6.536;2022-09-09T03:36:32;15.60;99.90
61016;DHT22;46902;52.920;6.536;2022-09-09T03:38:58;15.60;99.90
61016;DHT22;46902;52.920;6.536;2022-09-09T03:41:25;15.60;99.90
61016;DHT22;46902;52.920;6.536;2022-09-09T03:43:51;15.60;99.90
61016;DHT22;46902;52.920;6.536;2022-09-09T03:46:18;15.60;99.90
61016;DHT22;46902;52.920;6.536;2022-09-09T03:48:43;15.60;99.90
61016;DHT22;46902;52.920;6.536;2022-09-09T03:51:09;15.50;99.90
61016;DHT22;46902;52.920;6.536;2022-09-09T03:53:36;15.60;99.90
61016;DHT22;46902;52.920;6.536;2022-09-09T03:56:04;15.50;99.90
61016;DHT22;46902;52.920;6.536;2022-09-09T03:58:33;15.50;99.90
61016;DHT22;46902;52.920;6.536;2022-09-09T04:01:00;15.50;99.90
61016;DHT22;46902;52.920;6.536;2022-09-09T04:03:26;15.50;99.90
61016;DHT22;46902;52.920;6.536;2022-09-09T04:05:52;15.50;99.90
61016;DHT22;46902;52.920;6.536;2022-09-09T04:08:19;15.50;99.90
61016;DHT22;46902;52.920;6.536;2022-09-09T04:10:47;15.50;99.90
61016;DHT22;46902;52.920;6.536;2022-09-09T04:13:13;15.50;99.90
61016;DHT22;46902;52.920;6.536;2022-09-09T04:15:40;15.50;99.90
61016;DHT22;46902;52.920;6.536;2022-09-09T04:18:06;15.50;99.90
61016;DHT22;46902;52.920;6.536;2022-09-09T04:20:32;15.50;99.90
61016;DHT22;46902;52.920;6.536;2022-09-09T04:22:58;15.50;99.90
61016;DHT22;46902;52.920;6.536;2022-09-09T04:25:23;15.50;99.90
61016;DHT22;46902;52.920;6.536;2022-09-09T04:27:56;15.50;99.90
61016;DHT22;46902;52.920;6.536;2022-09-09T04:30:24;15.50;99.90
61016;DHT22;46902;52.920;6.536;2022-09-09T04:32:50;15.50;99.90
61016;DHT22;46902;52.920;6.536;2022-09-09T04:35:16;15.40;99.90
61016;DHT22;46902;52.920;6.536;2022-09-09T04:37:41;15.40;99.90
61016;DHT22;46902;52.920;6.536;2022-09-09T04:40:08;15.40;99.90
61016;DHT22;46902;52.920;6.536;2022-09-09T04:42:38;15.40;99.90
61016;DHT22;46902;52.920;6.536;2022-09-09T04:45:05;15.40;99.90
61016;DHT22;46902;52.920;6.536;2022-09-09T04:47:32;15.40;99.90
61016;DHT22;46902;52.920;6.536;2022-09-09T04:49:58;15.40;99.90
61016;DHT22;46902;52.920;6.536;2022-09-09T04:52:23;15.30;99.90
61016;DHT22;46902;52.920;6.536;2022-09-09T04:54:52;15.40;99.90
61016;DHT22;46902;52.920;6.536;2022-09-09T04:57:19;15.30;99.90
61016;DHT22;46902;52.920;6.536;2022-09-09T04:59:45;15.30;99.90
61016;DHT22;46902;52.920;6.536;2022-09-09T05:02:11;15.30;99.90
61016;DHT22;46902;52.920;6.536;2022-09-09T05:04:37;15.30;99.90
61016;DHT22;46902;52.920;6.536;2022-09-09T05:07:02;15.30;99.90
61016;DHT22;46902;52.920;6.536;2022-09-09T05:09:28;15.30;99.90
61016;DHT22;46902;52.920;6.536;2022-09-09T05:11:54;15.20;99.90
61016;DHT22;46902;52.920;6.536;2022-09-09T05:14:20;15.20;99.90
61016;DHT22;46902;52.920;6.536;2022-09-09T05:16:46;15.20;99.90
61016;DHT22;46902;52.920;6.536;2022-09-09T05:19:12;15.20;99.90
61016;DHT22;46902;52.920;6.536;2022-09-09T05:21:38;15.20;99.90
61016;DHT22;46902;52.920;6.536;2022-09-09T05:24:04;15.20;99.90
61016;DHT22;46902;52.920;6.536;2022-09-09T05:26:29;15.20;99.90
61016;DHT22;46902;52.920;6.536;2022-09-09T05:28:55;15.20;99.90
61016;DHT22;46902;52.920;6.536;2022-09-09T05:31:22;15.10;99.90
61016;DHT22;46902;52.920;6.536;2022-09-09T05:33:48;15.10;99.90
61016;DHT22;46902;52.920;6.536;2022-09-09T05:36:19;15.10;99.90
61016;DHT22;46902;52.920;6.536;2022-09-09T05:38:46;15.10;99.90
61016;DHT22;46902;52.920;6.536;2022-09-09T05:41:13;15.10;99.90
61016;DHT22;46902;52.920;6.536;2022-09-09T05:43:41;15.10;99.90
61016;DHT22;46902;52.920;6.536;2022-09-09T05:46:25;15.10;99.90
61016;DHT22;46902;52.920;6.536;2022-09-09T05:48:52;15.20;99.90
61016;DHT22;46902;52.920;6.536;2022-09-09T05:51:22;15.10;99.90
61016;DHT22;46902;52.920;6.536;2022-09-09T05:53:49;15.10;99.90
61016;DHT22;46902;52.920;6.536;2022-09-09T05:56:20;15.20;99.90
61016;DHT22;46902;52.920;6.536;2022-09-09T05:58:47;15.20;99.90
61016;DHT22;46902;52.920;6.536;2022-09-09T06:01:21;15.20;99.90
61016;DHT22;46902;52.920;6.536;2022-09-09T06:03:48;15.20;99.90
61016;DHT22;46902;52.920;6.536;2022-09-09T06:06:19;15.20;99.90
61016;DHT22;46902;52.920;6.536;2022-09-09T06:08:50;15.30;99.90
61016;DHT22;46902;52.920;6.536;2022-09-09T06:11:21;15.20;99.90
61016;DHT22;46902;52.920;6.536;2022-09-09T06:13:48;15.20;99.90
61016;DHT22;46902;52.920;6.536;2022-09-09T06:16:18;15.20;99.90
61016;DHT22;46902;52.920;6.536;2022-09-09T06:18:44;15.30;99.90
61016;DHT22;46902;52.920;6.536;2022-09-09T06:21:30;15.30;99.90
61016;DHT22;46902;52.920;6.536;2022-09-09T06:23:56;15.30;99.90
61016;DHT22;46902;52.920;6.536;2022-09-09T06:26:26;15.30;99.90
61016;DHT22;46902;52.920;6.536;2022-09-09T06:28:54;15.30;99.90
61016;DHT22;46902;52.920;6.536;2022-09-09T06:31:22;15.30;99.90
61016;DHT22;46902;52.920;6.536;2022-09-09T06:33:49;15.40;99.90
61016;DHT22;46902;52.920;6.536;2022-09-09T06:36:16;15.40;99.90
61016;DHT22;46902;52.920;6.536;2022-09-09T06:38:42;15.40;99.90
61016;DHT22;46902;52.920;6.536;2022-09-09T06:41:09;15.50;99.90
61016;DHT22;46902;52.920;6.536;2022-09-09T06:43:35;15.50;99.90
61016;DHT22;46902;52.920;6.536;2022-09-09T06:46:03;15.50;99.90
61016;DHT22;46902;52.920;6.536;2022-09-09T06:48:30;15.50;99.90
61016;DHT22;46902;52.920;6.536;2022-09-09T06:51:10;15.50;99.90
61016;DHT22;46902;52.920;6.536;2022-09-09T06:53:37;15.60;99.90
61016;DHT22;46902;52.920;6.536;2022-09-09T06:58:44;15.60;99.90
61016;DHT22;46902;52.920;6.536;2022-09-09T07:01:16;15.70;99.90
61016;DHT22;46902;52.920;6.536;2022-09-09T07:03:44;15.70;99.90
61016;DHT22;46902;52.920;6.536;2022-09-09T07:06:14;15.70;99.90
61016;DHT22;46902;52.920;6.536;2022-09-09T07:08:42;15.80;99.90
61016;DHT22;46902;52.920;6.536;2022-09-09T07:11:09;15.90;99.90
61016;DHT22;46902;52.920;6.536;2022-09-09T07:13:35;15.90;99.90
61016;DHT22;46902;52.920;6.536;2022-09-09T07:16:08;16.00;99.90
61016;DHT22;46902;52.920;6.536;2022-09-09T07:18:34;16.10;99.90
61016;DHT22;46902;52.920;6.536;2022-09-09T07:21:01;16.10;99.90
61016;DHT22;46902;52.920;6.536;2022-09-09T07:23:28;16.20;99.90
61016;DHT22;46902;52.920;6.536;2022-09-09T07:25:54;16.30;99.90
61016;DHT22;46902;52.920;6.536;2022-09-09T07:28:20;16.40;99.90
61016;DHT22;46902;52.920;6.536;2022-09-09T07:30:57;16.50;99.90
61016;DHT22;46902;52.920;6.536;2022-09-09T07:33:24;16.70;99.90
61016;DHT22;46902;52.920;6.536;2022-09-09T07:35:51;16.70;99.90
61016;DHT22;46902;52.920;6.536;2022-09-09T07:38:19;16.80;99.90
61016;DHT22;46902;52.920;6.536;2022-09-09T07:40:45;16.80;99.90
61016;DHT22;46902;52.920;6.536;2022-09-09T07:43:10;16.80;99.90
61016;DHT22;46902;52.920;6.536;2022-09-09T07:45:37;16.90;99.90
61016;DHT22;46902;52.920;6.536;2022-09-09T07:48:03;16.90;99.90
61016;DHT22;46902;52.920;6.536;2022-09-09T07:50:29;17.00;99.90
61016;DHT22;46902;52.920;6.536;2022-09-09T07:52:55;17.00;99.90
61016;DHT22;46902;52.920;6.536;2022-09-09T07:55:21;17.00;99.90
61016;DHT22;46902;52.920;6.536;2022-09-09T07:57:50;17.10;99.90
61016;DHT22;46902;52.920;6.536;2022-09-09T08:00:16;17.20;99.90
61016;DHT22;46902;52.920;6.536;2022-09-09T08:02:43;17.30;99.90
61016;DHT22;46902;52.920;6.536;2022-09-09T08:05:09;17.30;99.90
61016;DHT22;46902;52.920;6.536;2022-09-09T08:07:34;17.40;99.90
61016;DHT22;46902;52.920;6.536;2022-09-09T08:10:00;17.50;99.90
61016;DHT22;46902;52.920;6.536;2022-09-09T08:12:25;17.70;99.90
61016;DHT22;46902;52.920;6.536;2022-09-09T08:14:51;17.90;99.90
61016;DHT22;46902;52.920;6.536;2022-09-09T08:17:17;18.10;99.90
61016;DHT22;46902;52.920;6.536;2022-09-09T08:19:42;18.20;99.90
61016;DHT22;46902;52.920;6.536;2022-09-09T08:22:09;18.40;99.90
61016;DHT22;46902;52.920;6.536;2022-09-09T08:24:35;18.50;99.90
61016;DHT22;46902;52.920;6.536;2022-09-09T08:27:01;18.60;99.90
61016;DHT22;46902;52.920;6.536;2022-09-09T08:29:27;18.70;99.90
61016;DHT22;46902;52.920;6.536;2022-09-09T08:31:55;18.70;99.90
61016;DHT22;46902;52.920;6.536;2022-09-09T08:34:23;18.80;99.90
61016;DHT22;46902;52.920;6.536;2022-09-09T08:36:50;19.10;99.90
61016;DHT22;46902;52.920;6.536;2022-09-09T08:39:18;19.10;99.90
61016;DHT22;46902;52.920;6.536;2022-09-09T08:55:49;19.80;99.90
61016;DHT22;46902;52.920;6.536;2022-09-09T08:58:24;19.90;99.90
61016;DHT22;46902;52.920;6.536;2022-09-09T09:03:59;19.90;99.90
61016;DHT22;46902;52.920;6.536;2022-09-09T09:09:35;19.90;99.90
61016;DHT22;46902;52.920;6.536;2022-09-09T09:12:15;20.20;99.90
61016;DHT22;46902;52.920;6.536;2022-09-09T09:14:43;20.30;99.90
61016;DHT22;46902;52.920;6.536;2022-09-09T09:17:12;20.60;99.90
61016;DHT22;46902;52.920;6.536;2022-09-09T09:19:41;20.70;99.90
61016;DHT22;46902;52.920;6.536;2022-09-09T09:24:53;20.50;99.90
61016;DHT22;46902;52.920;6.536;2022-09-09T09:29:56;20.10;99.90
61016;DHT22;46902;52.920;6.536;2022-09-09T09:32:24;20.00;99.90
61016;DHT22;46902;52.920;6.536;2022-09-09T09:34:55;20.10;99.90
61016;DHT22;46902;52.920;6.536;2022-09-09T09:37:32;20.20;99.90
61016;DHT22;46902;52.920;6.536;2022-09-09T09:40:17;20.20;99.90
61016;DHT22;46902;52.920;6.536;2022-09-09T09:45:47;20.20;99.90
61016;DHT22;46902;52.920;6.536;2022-09-09T09:48:14;20.10;99.90
61016;DHT22;46902;52.920;6.536;2022-09-09T09:51:07;20.00;99.90
61016;DHT22;46902;52.920;6.536;2022-09-09T09:53:36;19.90;99.90
61016;DHT22;46902;52.920;6.536;2022-09-09T09:56:12;20.00;99.90
61016;DHT22;46902;52.920;6.536;2022-09-09T10:01:28;20.10;99.90
61016;DHT22;46902;52.920;6.536;2022-09-09T10:03:58;20.10;99.90
61016;DHT22;46902;52.920;6.536;2022-09-09T10:06:35;20.20;99.90
61016;DHT22;46902;52.920;6.536;2022-09-09T10:09:03;20.70;99.90
61016;DHT22;46902;52.920;6.536;2022-09-09T10:11:42;21.10;99.90
61016;DHT22;46902;52.920;6.536;2022-09-09T10:14:27;21.30;99.90
61016;DHT22;46902;52.920;6.536;2022-09-09T10:17:19;21.20;99.90
61016;DHT22;46902;52.920;6.536;2022-09-09T10:22:33;21.70;99.90
61016;DHT22;46902;52.920;6.536;2022-09-09T10:25:02;22.20;99.90
61016;DHT22;46902;52.920;6.536;2022-09-09T10:30:31;22.90;99.90
61016;DHT22;46902;52.920;6.536;2022-09-09T10:33:14;22.90;99.90
61016;DHT22;46902;52.920;6.536;2022-09-09T10:38:27;22.10;99.90
61016;DHT22;46902;52.920;6.536;2022-09-09T10:43:45;21.60;99.90
61016;DHT22;46902;52.920;6.536;2022-09-09T10:46:30;21.70;99.90
61016;DHT22;46902;52.920;6.536;2022-09-09T10:55:07;21.90;99.90
61016;DHT22;46902;52.920;6.536;2022-09-09T10:57:42;22.00;99.90
61016;DHT22;46902;52.920;6.536;2022-09-09T11:00:17;21.90;99.90
61016;DHT22;46902;52.920;6.536;2022-09-09T11:02:55;21.70;99.90
61016;DHT22;46902;52.920;6.536;2022-09-09T11:05:28;21.60;99.90
61016;DHT22;46902;52.920;6.536;2022-09-09T11:08:02;21.50;99.90
61016;DHT22;46902;52.920;6.536;2022-09-09T11:10:48;21.40;99.90
61016;DHT22;46902;52.920;6.536;2022-09-09T11:13:26;21.30;99.90
61016;DHT22;46902;52.920;6.536;2022-09-09T11:15:58;21.10;99.90
61016;DHT22;46902;52.920;6.536;2022-09-09T11:18:28;21.00;99.90
61016;DHT22;46902;52.920;6.536;2022-09-09T11:20:59;20.90;99.90
61016;DHT22;46902;52.920;6.536;2022-09-09T11:26:03;20.80;99.90
61016;DHT22;46902;52.920;6.536;2022-09-09T11:28:45;20.70;99.90
61016;DHT22;46902;52.920;6.536;2022-09-09T11:31:49;20.70;99.90
61016;DHT22;46902;52.920;6.536;2022-09-09T11:34:44;20.60;99.90
61016;DHT22;46902;52.920;6.536;2022-09-09T11:40:19;20.50;99.90
61016;DHT22;46902;52.920;6.536;2022-09-09T11:42:47;20.40;99.90
61016;DHT22;46902;52.920;6.536;2022-09-09T11:45:25;20.30;99.90
61016;DHT22;46902;52.920;6.536;2022-09-09T11:48:00;20.20;99.90
61016;DHT22;46902;52.920;6.536;2022-09-09T11:50:29;20.20;99.90
61016;DHT22;46902;52.920;6.536;2022-09-09T11:55:39;20.10;99.90
61016;DHT22;46902;52.920;6.536;2022-09-09T11:58:14;20.00;99.90
61016;DHT22;46902;52.920;6.536;2022-09-09T12:00:45;20.10;99.90
61016;DHT22;46902;52.920;6.536;2022-09-09T12:05:57;20.30;99.90
61016;DHT22;46902;52.920;6.536;2022-09-09T12:08:27;20.50;99.90
61016;DHT22;46902;52.920;6.536;2022-09-09T12:10:56;20.90;99.90
61016;DHT22;46902;52.920;6.536;2022-09-09T12:13:24;21.10;99.90
61016;DHT22;46902;52.920;6.536;2022-09-09T12:15:54;21.30;99.90
61016;DHT22;46902;52.920;6.536;2022-09-09T12:23:47;21.70;99.90
61016;DHT22;46902;52.920;6.536;2022-09-09T12:31:40;22.00;99.90
61016;DHT22;46902;52.920;6.536;2022-09-09T12:36:40;21.90;99.90
61016;DHT22;46902;52.920;6.536;2022-09-09T12:39:19;21.70;99.90
61016;DHT22;46902;52.920;6.536;2022-09-09T12:41:53;21.80;99.90
61016;DHT22;46902;52.920;6.536;2022-09-09T12:44:29;21.80;99.90
61016;DHT22;46902;52.920;6.536;2022-09-09T12:46:58;21.80;99.90
61016;DHT22;46902;52.920;6.536;2022-09-09T12:49:34;22.00;99.90
61016;DHT22;46902;52.920;6.536;2022-09-09T12:52:08;22.40;99.90
61016;DHT22;46902;52.920;6.536;2022-09-09T12:54:44;22.80;99.90
61016;DHT22;46902;52.920;6.536;2022-09-09T12:57:12;22.80;99.90
61016;DHT22;46902;52.920;6.536;2022-09-09T12:59:41;22.60;99.90
61016;DHT22;46902;52.920;6.536;2022-09-09T13:02:26;22.30;99.90
61016;DHT22;46902;52.920;6.536;2022-09-09T13:04:52;22.20;99.90
61016;DHT22;46902;52.920;6.536;2022-09-09T13:07:19;22.10;99.90
61016;DHT22;46902;52.920;6.536;2022-09-09T13:09:48;22.20;99.90
61016;DHT22;46902;52.920;6.536;2022-09-09T13:12:20;22.40;99.90
61016;DHT22;46902;52.920;6.536;2022-09-09T13:14:49;22.80;99.90
61016;DHT22;46902;52.920;6.536;2022-09-09T13:17:24;23.10;99.90
61016;DHT22;46902;52.920;6.536;2022-09-09T13:19:51;23.40;99.90
61016;DHT22;46902;52.920;6.536;2022-09-09T13:27:33;22.70;99.90
61016;DHT22;46902;52.920;6.536;2022-09-09T13:30:00;22.50;99.90
61016;DHT22;46902;52.920;6.536;2022-09-09T13:32:27;22.30;99.90
61016;DHT22;46902;52.920;6.536;2022-09-09T13:34:55;22.10;99.90
61016;DHT22;46902;52.920;6.536;2022-09-09T13:37:35;22.00;99.90
61016;DHT22;46902;52.920;6.536;2022-09-09T13:40:03;22.00;99.90
61016;DHT22;46902;52.920;6.536;2022-09-09T13:42:32;22.00;99.90
61016;DHT22;46902;52.920;6.536;2022-09-09T13:45:00;22.10;99.90
61016;DHT22;46902;52.920;6.536;2022-09-09T13:47:30;22.20;99.90
61016;DHT22;46902;52.920;6.536;2022-09-09T13:49:56;22.20;99.90
61016;DHT22;46902;52.920;6.536;2022-09-09T13:52:22;22.00;99.90
61016;DHT22;46902;52.920;6.536;2022-09-09T13:54:49;21.80;99.90
61016;DHT22;46902;52.920;6.536;2022-09-09T13:57:21;21.40;99.90
61016;DHT22;46902;52.920;6.536;2022-09-09T13:59:48;21.00;99.90
61016;DHT22;46902;52.920;6.536;2022-09-09T14:02:15;20.60;99.90
61016;DHT22;46902;52.920;6.536;2022-09-09T14:04:42;20.30;99.90
61016;DHT22;46902;52.920;6.536;2022-09-09T14:07:15;20.20;99.90
61016;DHT22;46902;52.920;6.536;2022-09-09T14:09:41;20.30;99.90
61016;DHT22;46902;52.920;6.536;2022-09-09T14:12:13;20.50;99.90
61016;DHT22;46902;52.920;6.536;2022-09-09T14:14:40;20.90;99.90
61016;DHT22;46902;52.920;6.536;2022-09-09T14:17:07;21.20;99.90
61016;DHT22;46902;52.920;6.536;2022-09-09T14:19:33;21.60;99.90
61016;DHT22;46902;52.920;6.536;2022-09-09T14:21:59;21.80;99.90
61016;DHT22;46902;52.920;6.536;2022-09-09T14:24:24;21.90;99.90
61016;DHT22;46902;52.920;6.536;2022-09-09T14:26:51;22.10;99.90
61016;DHT22;46902;52.920;6.536;2022-09-09T14:29:16;22.10;99.90
61016;DHT22;46902;52.920;6.536;2022-09-09T14:31:42;22.10;99.90
61016;DHT22;46902;52.920;6.536;2022-09-09T14:34:07;22.10;99.90
61016;DHT22;46902;52.920;6.536;2022-09-09T14:36:35;22.00;99.90
61016;DHT22;46902;52.920;6.536;2022-09-09T14:39:00;21.90;99.90
61016;DHT22;46902;52.920;6.536;2022-09-09T14:41:26;21.80;99.90
61016;DHT22;46902;52.920;6.536;2022-09-09T14:43:51;21.70;99.90
61016;DHT22;46902;52.920;6.536;2022-09-09T14:46:20;21.60;99.90
61016;DHT22;46902;52.920;6.536;2022-09-09T14:48:46;21.50;99.90
61016;DHT22;46902;52.920;6.536;2022-09-09T14:51:19;21.50;99.90
61016;DHT22;46902;52.920;6.536;2022-09-09T14:53:45;21.50;99.90
61016;DHT22;46902;52.920;6.536;2022-09-09T14:56:18;21.60;99.90
61016;DHT22;46902;52.920;6.536;2022-09-09T14:58:44;21.60;99.90
61016;DHT22;46902;52.920;6.536;2022-09-09T15:01:18;21.40;99.90
61016;DHT22;46902;52.920;6.536;2022-09-09T15:03:52;21.30;99.90
61016;DHT22;46902;52.920;6.536;2022-09-09T15:06:18;21.30;99.90
61016;DHT22;46902;52.920;6.536;2022-09-09T15:08:45;21.30;99.90
61016;DHT22;46902;52.920;6.536;2022-09-09T15:11:14;21.40;99.90
61016;DHT22;46902;52.920;6.536;2022-09-09T15:13:41;21.50;99.90
61016;DHT22;46902;52.920;6.536;2022-09-09T15:18:38;21.60;99.90
61016;DHT22;46902;52.920;6.536;2022-09-09T15:21:09;21.60;99.90
61016;DHT22;46902;52.920;6.536;2022-09-09T15:23:35;21.60;99.90
61016;DHT22;46902;52.920;6.536;2022-09-09T15:26:02;21.60;99.90
61016;DHT22;46902;52.920;6.536;2022-09-09T15:28:28;21.50;99.90
61016;DHT22;46902;52.920;6.536;2022-09-09T15:30:54;21.30;99.90
61016;DHT22;46902;52.920;6.536;2022-09-09T15:33:21;21.20;99.90
61016;DHT22;46902;52.920;6.536;2022-09-09T15:35:47;21.10;99.90
61016;DHT22;46902;52.920;6.536;2022-09-09T15:38:15;21.00;99.90
61016;DHT22;46902;52.920;6.536;2022-09-09T15:40:42;20.90;99.90
61016;DHT22;46902;52.920;6.536;2022-09-09T15:43:08;20.90;99.90
61016;DHT22;46902;52.920;6.536;2022-09-09T15:45:35;20.80;99.90
61016;DHT22;46902;52.920;6.536;2022-09-09T15:48:01;20.70;99.90
61016;DHT22;46902;52.920;6.536;2022-09-09T15:50:27;20.70;99.90
61016;DHT22;46902;52.920;6.536;2022-09-09T15:52:56;20.60;99.90
61016;DHT22;46902;52.920;6.536;2022-09-09T15:55:22;20.50;99.90
61016;DHT22;46902;52.920;6.536;2022-09-09T15:57:50;20.40;99.90
61016;DHT22;46902;52.920;6.536;2022-09-09T16:00:18;20.30;99.90
61016;DHT22;46902;52.920;6.536;2022-09-09T16:02:48;20.20;99.90
61016;DHT22;46902;52.920;6.536;2022-09-09T16:05:14;20.20;99.90
61016;DHT22;46902;52.920;6.536;2022-09-09T16:07:39;20.10;99.90
61016;DHT22;46902;52.920;6.536;2022-09-09T16:10:08;20.00;99.90
61016;DHT22;46902;52.920;6.536;2022-09-09T16:12:34;19.90;99.90
61016;DHT22;46902;52.920;6.536;2022-09-09T16:15:00;19.90;99.90
61016;DHT22;46902;52.920;6.536;2022-09-09T16:17:25;19.90;99.90
61016;DHT22;46902;52.920;6.536;2022-09-09T16:19:53;19.80;99.90
61016;DHT22;46902;52.920;6.536;2022-09-09T16:22:19;19.80;99.90
61016;DHT22;46902;52.920;6.536;2022-09-09T16:24:45;19.80;99.90
61016;DHT22;46902;52.920;6.536;2022-09-09T16:27:10;19.80;99.90
61016;DHT22;46902;52.920;6.536;2022-09-09T16:29:36;19.90;99.90
61016;DHT22;46902;52.920;6.536;2022-09-09T16:32:02;19.90;99.90
61016;DHT22;46902;52.920;6.536;2022-09-09T16:34:28;19.90;99.90
61016;DHT22;46902;52.920;6.536;2022-09-09T16:36:54;19.90;99.90
61016;DHT22;46902;52.920;6.536;2022-09-09T16:39:20;19.90;99.90
61016;DHT22;46902;52.920;6.536;2022-09-09T16:41:47;19.90;99.90
61016;DHT22;46902;52.920;6.536;2022-09-09T16:44:15;19.90;99.90
61016;DHT22;46902;52.920;6.536;2022-09-09T16:46:43;19.90;99.90
61016;DHT22;46902;52.920;6.536;2022-09-09T16:49:11;19.90;99.90
61016;DHT22;46902;52.920;6.536;2022-09-09T16:51:46;19.90;99.90
61016;DHT22;46902;52.920;6.536;2022-09-09T16:54:16;19.90;99.90
61016;DHT22;46902;52.920;6.536;2022-09-09T16:56:44;19.90;99.90
61016;DHT22;46902;52.920;6.536;2022-09-09T16:59:17;19.90;99.90
61016;DHT22;46902;52.920;6.536;2022-09-09T17:01:45;19.90;99.90
61016;DHT22;46902;52.920;6.536;2022-09-09T17:04:15;19.90;99.90
61016;DHT22;46902;52.920;6.536;2022-09-09T17:06:47;19.90;99.90
61016;DHT22;46902;52.920;6.536;2022-09-09T17:09:14;19.90;99.90
61016;DHT22;46902;52.920;6.536;2022-09-09T17:11:40;19.80;99.90
61016;DHT22;46902;52.920;6.536;2022-09-09T17:14:08;19.80;99.90
61016;DHT22;46902;52.920;6.536;2022-09-09T17:16:35;19.80;99.90
61016;DHT22;46902;52.920;6.536;2022-09-09T17:19:01;19.80;99.90
61016;DHT22;46902;52.920;6.536;2022-09-09T17:21:28;19.80;99.90
61016;DHT22;46902;52.920;6.536;2022-09-09T17:23:54;19.80;99.90
61016;DHT22;46902;52.920;6.536;2022-09-09T17:26:22;19.80;99.90
61016;DHT22;46902;52.920;6.536;2022-09-09T17:28:48;19.80;99.90
61016;DHT22;46902;52.920;6.536;2022-09-09T17:31:16;19.80;99.90
61016;DHT22;46902;52.920;6.536;2022-09-09T17:33:46;19.80;99.90
61016;DHT22;46902;52.920;6.536;2022-09-09T17:36:16;19.80;99.90
61016;DHT22;46902;52.920;6.536;2022-09-09T17:38:43;19.80;99.90
61016;DHT22;46902;52.920;6.536;2022-09-09T17:41:15;19.70;99.90
61016;DHT22;46902;52.920;6.536;2022-09-09T17:43:41;19.70;99.90
61016;DHT22;46902;52.920;6.536;2022-09-09T17:46:13;19.60;99.90